createdAt,value
2022-10-18T00:00:20.880Z,70.088000
2022-10-18T00:05:23.063Z,70.455714
2022-10-18T00:10:25.508Z,69.668000
2022-10-18T00:15:28.760Z,68.756000
2022-10-18T00:20:31.456Z,67.496000
2022-10-18T00:25:34.841Z,67.460000
2022-10-18T00:30:15.997Z,67.460000
2022-10-18T00:35:18.390Z,66.872000
2022-10-18T00:40:20.663Z,65.576000
2022-10-18T00:45:23.653Z,64.515714
2022-10-18T00:50:25.651Z,63.392000
2022-10-18T00:55:27.751Z,62.696000
2022-10-18T01:00:29.892Z,61.688000
2022-10-18T01:05:32.263Z,61.016000
2022-10-18T01:10:34.618Z,61.016000
2022-10-18T01:15:16.615Z,60.212000
2022-10-18T01:20:19.244Z,59.984000
2022-10-18T01:25:21.657Z,60.332000
2022-10-18T01:30:24.324Z,60.427143
2022-10-18T01:35:26.373Z,60.152000
2022-10-18T01:40:29.351Z,59.564000
2022-10-18T01:45:31.174Z,59.444000
2022-10-18T01:50:33.184Z,59.624000
2022-10-18T01:55:35.380Z,59.492000
2022-10-18T02:00:17.303Z,59.156000
2022-10-18T02:05:19.678Z,58.904000
2022-10-18T02:10:22.046Z,58.331429
2022-10-18T02:15:24.210Z,57.056000
2022-10-18T02:20:26.276Z,56.000000
2022-10-18T02:25:28.727Z,56.420000
2022-10-18T02:30:30.669Z,55.904000
2022-10-18T02:35:33.092Z,55.448000
2022-10-18T02:40:35.314Z,55.136000
2022-10-18T02:45:17.332Z,55.076000
2022-10-18T02:50:20.791Z,55.088000
2022-10-18T02:55:22.070Z,55.580000
2022-10-18T03:00:24.072Z,55.220000
2022-10-18T03:05:26.200Z,54.608000
2022-10-18T03:10:28.717Z,54.680000
2022-10-18T03:15:30.866Z,54.680000
2022-10-18T03:20:33.418Z,54.416000
2022-10-18T03:25:35.736Z,53.960000
2022-10-18T03:30:18.123Z,53.732000
2022-10-18T03:35:21.342Z,53.948000
2022-10-18T03:40:23.708Z,53.728571
2022-10-18T03:45:28.970Z,53.516000
2022-10-18T03:50:27.087Z,53.168000
2022-10-18T03:55:29.482Z,52.772000
2022-10-18T04:00:31.497Z,53.144000
2022-10-18T04:05:34.319Z,52.844000
2022-10-18T04:10:17.094Z,52.340000
2022-10-18T04:15:19.738Z,52.268000
2022-10-18T04:20:22.590Z,51.967143
2022-10-18T04:25:24.884Z,51.800000
2022-10-18T04:30:27.146Z,51.632000
2022-10-18T04:35:30.011Z,51.584000
2022-10-18T04:40:32.295Z,51.740000
2022-10-18T04:45:34.563Z,51.776000
2022-10-18T04:50:16.513Z,51.608000
2022-10-18T04:55:19.150Z,51.320000
2022-10-18T05:00:21.484Z,51.356000
2022-10-18T05:05:27.054Z,51.324286
2022-10-18T05:10:27.441Z,51.356000
2022-10-18T05:15:28.592Z,51.752000
2022-10-18T05:20:30.718Z,52.148000
2022-10-18T05:25:32.995Z,52.220000
2022-10-18T05:30:35.076Z,52.520000
2022-10-18T05:35:17.260Z,52.424000
2022-10-18T05:40:19.539Z,51.992000
2022-10-18T05:45:22.606Z,51.722857
2022-10-18T05:50:25.053Z,51.848000
2022-10-18T05:55:27.281Z,52.136000
2022-10-18T06:00:30.523Z,51.644000
2022-10-18T06:05:31.838Z,51.464000
2022-10-18T06:10:33.939Z,50.948000
2022-10-18T06:15:16.201Z,50.696000
2022-10-18T06:20:18.848Z,48.944000
2022-10-18T06:25:21.063Z,47.972000
2022-10-18T06:30:23.145Z,47.390000
2022-10-18T06:35:25.532Z,47.132000
2022-10-18T06:40:27.629Z,47.120000
2022-10-18T06:45:30.292Z,47.480000
2022-10-18T06:50:32.227Z,47.552000
2022-10-18T06:55:34.690Z,47.048000
2022-10-18T07:00:16.353Z,47.192000
2022-10-18T07:05:18.869Z,47.216000
2022-10-18T07:10:21.147Z,47.276000
2022-10-18T07:15:23.805Z,48.187143
2022-10-18T07:20:25.762Z,48.128000
2022-10-18T07:25:30.471Z,48.164000
2022-10-18T07:30:32.026Z,48.356000
2022-10-18T07:35:33.419Z,47.960000
2022-10-18T07:40:35.521Z,47.348000
2022-10-18T07:45:17.992Z,47.252000
2022-10-18T07:50:20.274Z,46.736000
2022-10-18T07:55:22.380Z,46.310000
2022-10-18T08:00:24.750Z,46.064000
2022-10-18T08:05:27.418Z,46.280000
2022-10-18T08:10:29.683Z,47.240000
2022-10-18T08:15:31.715Z,47.084000
2022-10-18T08:20:34.010Z,46.700000
2022-10-18T08:25:41.931Z,46.724000
2022-10-18T08:30:18.105Z,46.484000
2022-10-18T08:35:20.431Z,47.036000
2022-10-18T08:40:22.676Z,46.940000
2022-10-18T08:45:40.991Z,46.460000
2022-10-18T08:50:26.707Z,46.460000
2022-10-18T08:55:28.910Z,45.860000
2022-10-18T09:00:31.582Z,45.416000
2022-10-18T09:05:33.460Z,45.164000
2022-10-18T09:10:35.900Z,44.984000
2022-10-18T09:15:17.812Z,45.224000
2022-10-18T09:20:20.426Z,46.040000
2022-10-18T09:25:22.626Z,46.271429
2022-10-18T09:30:25.178Z,46.664000
2022-10-18T09:35:27.354Z,46.892000
2022-10-18T09:40:29.531Z,46.748000
2022-10-18T09:45:31.857Z,46.064000
2022-10-18T09:50:34.079Z,45.572000
2022-10-18T09:55:16.122Z,45.020000
2022-10-18T10:00:18.250Z,45.128000
2022-10-18T10:05:20.404Z,45.680000
2022-10-18T10:10:22.830Z,45.962857
2022-10-18T10:15:25.536Z,46.064000
2022-10-18T10:20:27.228Z,46.076000
2022-10-18T10:25:29.351Z,45.692000
2022-10-18T10:30:31.334Z,44.852000
2022-10-18T10:36:09.145Z,44.348000
2022-10-18T10:40:36.035Z,43.892000
2022-10-18T10:45:17.814Z,43.340000
2022-10-18T10:50:20.414Z,43.964000
2022-10-18T10:55:34.842Z,44.240000
2022-10-18T11:00:25.298Z,44.588000
2022-10-18T11:05:27.988Z,44.924000
2022-10-18T11:10:30.166Z,44.372000
2022-10-18T11:15:32.349Z,44.096000
2022-10-18T11:20:34.384Z,43.568000
2022-10-18T11:25:17.570Z,44.024000
2022-10-18T11:30:18.657Z,44.060000
2022-10-18T11:35:21.299Z,43.916000
2022-10-18T11:40:23.322Z,44.034286
2022-10-18T11:45:25.717Z,44.384000
2022-10-18T11:50:28.472Z,44.588000
2022-10-18T11:55:33.016Z,44.072000
2022-10-18T12:00:33.876Z,44.240000
2022-10-18T12:05:35.584Z,43.496000
2022-10-18T12:10:26.164Z,42.884000
2022-10-18T12:15:19.923Z,42.512000
2022-10-18T12:20:21.898Z,42.236000
2022-10-18T12:25:25.294Z,42.285714
2022-10-18T12:30:26.551Z,42.620000
2022-10-18T12:35:28.918Z,42.344000
2022-10-18T12:40:31.182Z,42.560000
2022-10-18T12:45:33.295Z,43.148000
2022-10-18T12:50:16.110Z,43.004000
2022-10-18T12:55:18.333Z,42.908000
2022-10-18T13:00:19.370Z,42.464000
2022-10-18T13:05:33.781Z,42.680000
2022-10-18T13:10:24.058Z,43.314286
2022-10-18T13:15:29.202Z,43.568000
2022-10-18T13:20:29.931Z,43.880000
2022-10-18T13:25:31.187Z,45.344000
2022-10-18T13:30:33.313Z,45.872000
2022-10-18T13:35:35.605Z,45.572000
2022-10-18T13:40:17.787Z,45.104000
2022-10-18T13:45:20.073Z,45.020000
2022-10-18T13:50:22.530Z,44.754286
2022-10-18T13:55:24.544Z,43.988000
2022-10-18T14:00:26.848Z,42.728000
2022-10-18T14:05:28.864Z,41.876000
2022-10-18T14:10:43.833Z,41.480000
2022-10-18T14:15:33.420Z,41.552000
2022-10-18T14:20:49.066Z,41.888000
2022-10-18T14:25:17.869Z,42.104000
2022-10-18T14:30:19.903Z,42.320000
2022-10-18T14:35:37.905Z,42.992857
2022-10-18T14:40:24.806Z,43.568000
2022-10-18T14:45:27.816Z,44.324000
2022-10-18T14:50:30.714Z,45.140000
2022-10-18T14:55:31.870Z,45.992000
2022-10-18T15:00:34.247Z,46.340000
2022-10-18T15:05:16.518Z,46.652000
2022-10-18T15:10:18.805Z,47.096000
2022-10-18T15:15:22.214Z,48.296000
2022-10-18T15:20:23.346Z,48.830000
2022-10-18T15:25:29.269Z,49.724000
2022-10-18T15:30:28.340Z,51.428000
2022-10-18T15:35:30.782Z,52.472000
2022-10-18T15:40:33.083Z,53.312000
2022-10-18T15:45:15.992Z,53.600000
2022-10-18T15:50:17.390Z,53.852000
2022-10-18T15:55:19.843Z,54.092000
2022-10-18T16:00:21.797Z,54.440000
2022-10-18T16:05:24.079Z,54.821429
2022-10-18T16:10:27.900Z,54.728000
2022-10-18T16:15:29.073Z,55.148000
2022-10-18T16:20:31.036Z,55.256000
2022-10-18T16:25:33.584Z,56.384000
2022-10-18T16:30:16.505Z,56.564000
2022-10-18T16:35:18.496Z,56.636000
2022-10-18T16:40:20.307Z,57.164000
2022-10-18T16:45:22.551Z,59.655714
2022-10-18T16:50:24.846Z,59.648000
2022-10-18T16:55:27.382Z,60.620000
2022-10-18T17:00:29.593Z,60.416000
2022-10-18T17:05:31.904Z,61.652000
2022-10-18T17:10:34.103Z,60.620000
2022-10-18T17:15:16.383Z,60.200000
2022-10-18T17:20:19.235Z,62.432000
2022-10-18T17:25:21.477Z,62.504000
2022-10-18T17:30:23.901Z,62.317143
2022-10-18T17:35:27.117Z,62.036000
2022-10-18T17:40:28.424Z,62.480000
2022-10-18T17:45:30.800Z,62.924000
2022-10-18T17:50:33.467Z,62.984000
2022-10-18T17:55:15.979Z,62.480000
2022-10-18T18:00:18.395Z,62.900000
2022-10-18T18:05:20.624Z,62.900000
2022-10-18T18:10:23.886Z,63.345714
2022-10-18T18:15:25.576Z,63.992000
2022-10-18T18:20:27.734Z,64.568000
2022-10-18T18:25:29.957Z,64.868000
2022-10-18T18:30:32.055Z,65.432000
2022-10-18T18:35:35.530Z,64.892000
2022-10-18T18:40:16.642Z,65.720000
2022-10-18T18:45:19.000Z,65.312000
2022-10-18T18:50:21.523Z,66.356000
2022-10-18T18:55:23.981Z,65.917143
2022-10-18T19:00:26.305Z,66.752000
2022-10-18T19:05:28.320Z,66.740000
2022-10-18T19:10:30.719Z,66.008000
2022-10-18T19:15:33.631Z,66.464000
2022-10-18T19:20:35.924Z,67.172000
2022-10-18T19:25:18.144Z,66.872000
2022-10-18T19:30:20.637Z,66.092000
2022-10-18T19:35:22.862Z,66.714286
2022-10-18T19:40:25.404Z,67.424000
2022-10-18T19:45:27.627Z,67.424000
2022-10-18T19:50:30.462Z,68.228000
2022-10-18T19:55:32.424Z,69.044000
2022-10-18T20:00:34.634Z,69.260000
2022-10-18T20:05:16.855Z,68.708000
2022-10-18T20:10:19.229Z,69.104000
2022-10-18T20:15:21.814Z,69.836000
2022-10-18T20:20:24.300Z,70.211429
2022-10-18T20:25:26.904Z,70.112000
2022-10-18T20:30:29.635Z,71.624000
2022-10-18T20:35:31.738Z,71.804000
2022-10-18T20:40:34.183Z,70.976000
2022-10-18T20:45:16.579Z,70.472000
2022-10-18T20:50:19.697Z,70.496000
2022-10-18T20:55:21.785Z,71.336000
2022-10-18T21:00:24.144Z,71.227143
2022-10-18T21:05:27.362Z,70.436000
2022-10-18T21:10:28.705Z,71.048000
2022-10-18T21:15:31.045Z,71.084000
2022-10-18T21:20:33.291Z,71.396000
2022-10-18T21:25:35.811Z,71.504000
2022-10-18T21:30:17.608Z,72.344000
2022-10-18T21:35:19.984Z,72.236000
2022-10-18T21:40:22.639Z,72.230000
2022-10-18T21:45:25.584Z,71.528000
2022-10-18T21:50:28.639Z,71.060000
2022-10-18T21:55:30.179Z,71.540000
2022-10-18T22:00:32.245Z,72.140000
2022-10-18T22:05:34.223Z,71.720000
2022-10-18T22:10:16.245Z,72.116000
2022-10-18T22:15:19.959Z,72.632000
2022-10-18T22:20:21.370Z,73.220000
2022-10-18T22:25:23.998Z,73.256000
2022-10-18T22:30:26.953Z,72.188000
2022-10-18T22:35:28.692Z,71.648000
2022-10-18T22:40:30.777Z,72.464000
2022-10-18T22:45:34.238Z,72.524000
2022-10-18T22:50:36.020Z,72.884000
2022-10-18T22:55:17.994Z,72.764000
2022-10-18T23:00:20.137Z,72.824000
2022-10-18T23:05:22.517Z,72.757143
2022-10-18T23:10:24.845Z,73.268000
2022-10-18T23:15:27.405Z,73.160000
2022-10-18T23:20:29.908Z,73.292000
2022-10-18T23:25:32.055Z,72.356000
2022-10-18T23:30:34.859Z,71.600000
2022-10-18T23:35:16.957Z,71.600000
2022-10-18T23:40:20.194Z,71.600000
2022-10-18T23:45:21.338Z,71.684000
2022-10-18T23:50:24.792Z,71.137143
2022-10-18T23:55:26.175Z,69.932000
